Eugene, Oregon
Current Conditions -  °F | °C
As of 6:54 PM on Monday 22 Dec 2014 (Local Time) from KEUG Reporting Station
Overcast Overcast  
Wind Chill: 11°   Ceiling: 6500
Heat Index: 11°   Visibility: 8mi
Dew Point:   Wind: 0mph
Humidity: 92%   Direction: NA
Pressure: 30.33"   Gusts: NA
Location:  44.05°N, 123.08°W
Report Text: KEUG 230254Z 00000KT 8SM FEW010 BKN065 OVC075 11/09 A3033 RMK AO2 SLP270 T01060094 56006
Loading
Personal Weather Stations






























Interactive Weather Map New forecast layout! Learn more

10-Day Weather Forecast

Advertisements
Track Severe Weather on mobile